sensor_id;sensor_type;location;lat;lon;timestamp;P1;durP1;ratioP1;P2;durP2;ratioP2
43626;SDS011;29217;52.586;13.442;2023-07-28T00:01:31;7.22;;;2.05;;
43626;SDS011;29217;52.586;13.442;2023-07-28T00:03:57;3.85;;;1.90;;
43626;SDS011;29217;52.586;13.442;2023-07-28T00:06:23;1.77;;;1.50;;
43626;SDS011;29217;52.586;13.442;2023-07-28T00:08:48;2.05;;;1.50;;
43626;SDS011;29217;52.586;13.442;2023-07-28T00:11:14;2.55;;;1.50;;
43626;SDS011;29217;52.586;13.442;2023-07-28T00:13:41;2.05;;;1.15;;
43626;SDS011;29217;52.586;13.442;2023-07-28T00:16:07;2.17;;;1.30;;
43626;SDS011;29217;52.586;13.442;2023-07-28T00:18:34;3.58;;;1.20;;
43626;SDS011;29217;52.586;13.442;2023-07-28T00:21:00;1.52;;;1.13;;
43626;SDS011;29217;52.586;13.442;2023-07-28T00:23:25;1.80;;;1.25;;
43626;SDS011;29217;52.586;13.442;2023-07-28T00:25:51;4.85;;;1.35;;
43626;SDS011;29217;52.586;13.442;2023-07-28T00:28:17;1.55;;;1.40;;
43626;SDS011;29217;52.586;13.442;2023-07-28T00:30:42;2.08;;;1.67;;
43626;SDS011;29217;52.586;13.442;2023-07-28T00:33:08;1.60;;;1.50;;
43626;SDS011;29217;52.586;13.442;2023-07-28T00:35:33;2.42;;;1.70;;
43626;SDS011;29217;52.586;13.442;2023-07-28T00:37:59;2.10;;;1.90;;
43626;SDS011;29217;52.586;13.442;2023-07-28T00:40:25;2.53;;;1.77;;
43626;SDS011;29217;52.586;13.442;2023-07-28T00:42:50;2.42;;;2.08;;
43626;SDS011;29217;52.586;13.442;2023-07-28T00:45:16;3.35;;;2.10;;
43626;SDS011;29217;52.586;13.442;2023-07-28T00:47:42;3.72;;;2.47;;
43626;SDS011;29217;52.586;13.442;2023-07-28T00:50:08;3.15;;;2.80;;
43626;SDS011;29217;52.586;13.442;2023-07-28T00:52:36;6.00;;;2.80;;
43626;SDS011;29217;52.586;13.442;2023-07-28T00:55:02;3.40;;;2.60;;
43626;SDS011;29217;52.586;13.442;2023-07-28T00:57:28;3.30;;;2.63;;
43626;SDS011;29217;52.586;13.442;2023-07-28T00:59:54;3.95;;;3.03;;
43626;SDS011;29217;52.586;13.442;2023-07-28T01:02:19;5.80;;;3.03;;
43626;SDS011;29217;52.586;13.442;2023-07-28T01:04:46;3.33;;;2.70;;
43626;SDS011;29217;52.586;13.442;2023-07-28T01:09:59;5.05;;;3.42;;
43626;SDS011;29217;52.586;13.442;2023-07-28T01:12:35;10.32;;;3.28;;
43626;SDS011;29217;52.586;13.442;2023-07-28T01:15:01;9.80;;;3.10;;
43626;SDS011;29217;52.586;13.442;2023-07-28T01:17:27;4.88;;;3.13;;
43626;SDS011;29217;52.586;13.442;2023-07-28T01:19:52;5.93;;;2.90;;
43626;SDS011;29217;52.586;13.442;2023-07-28T01:25:22;3.28;;;2.95;;
43626;SDS011;29217;52.586;13.442;2023-07-28T01:28:11;5.03;;;2.85;;
43626;SDS011;29217;52.586;13.442;2023-07-28T01:30:38;6.15;;;3.42;;
43626;SDS011;29217;52.586;13.442;2023-07-28T01:33:07;6.25;;;3.47;;
43626;SDS011;29217;52.586;13.442;2023-07-28T01:35:33;4.07;;;3.05;;
43626;SDS011;29217;52.586;13.442;2023-07-28T01:38:01;5.63;;;3.60;;
43626;SDS011;29217;52.586;13.442;2023-07-28T01:40:26;5.53;;;2.88;;
43626;SDS011;29217;52.586;13.442;2023-07-28T01:42:52;6.82;;;3.42;;
43626;SDS011;29217;52.586;13.442;2023-07-28T01:45:18;4.15;;;3.03;;
43626;SDS011;29217;52.586;13.442;2023-07-28T01:47:43;4.90;;;2.70;;
43626;SDS011;29217;52.586;13.442;2023-07-28T01:50:09;9.40;;;3.13;;
43626;SDS011;29217;52.586;13.442;2023-07-28T01:52:34;7.07;;;3.00;;
43626;SDS011;29217;52.586;13.442;2023-07-28T01:55:00;8.88;;;3.08;;
43626;SDS011;29217;52.586;13.442;2023-07-28T01:57:26;4.43;;;2.85;;
43626;SDS011;29217;52.586;13.442;2023-07-28T01:59:53;3.45;;;2.55;;
43626;SDS011;29217;52.586;13.442;2023-07-28T02:02:19;4.13;;;2.88;;
43626;SDS011;29217;52.586;13.442;2023-07-28T02:04:45;6.15;;;2.67;;
43626;SDS011;29217;52.586;13.442;2023-07-28T02:07:11;4.53;;;2.88;;
43626;SDS011;29217;52.586;13.442;2023-07-28T02:09:36;7.63;;;2.90;;
43626;SDS011;29217;52.586;13.442;2023-07-28T02:12:02;4.72;;;3.20;;
43626;SDS011;29217;52.586;13.442;2023-07-28T02:14:28;6.03;;;3.42;;
43626;SDS011;29217;52.586;13.442;2023-07-28T02:16:53;6.13;;;3.83;;
43626;SDS011;29217;52.586;13.442;2023-07-28T02:19:19;6.07;;;4.07;;
43626;SDS011;29217;52.586;13.442;2023-07-28T02:21:44;7.20;;;4.25;;
43626;SDS011;29217;52.586;13.442;2023-07-28T02:24:10;8.05;;;4.28;;
43626;SDS011;29217;52.586;13.442;2023-07-28T02:26:35;6.65;;;4.32;;
43626;SDS011;29217;52.586;13.442;2023-07-28T02:29:01;8.35;;;4.63;;
43626;SDS011;29217;52.586;13.442;2023-07-28T02:31:26;8.02;;;4.53;;
43626;SDS011;29217;52.586;13.442;2023-07-28T02:33:52;12.13;;;4.40;;
43626;SDS011;29217;52.586;13.442;2023-07-28T02:36:18;9.32;;;4.88;;
43626;SDS011;29217;52.586;13.442;2023-07-28T02:38:43;7.65;;;4.65;;
43626;SDS011;29217;52.586;13.442;2023-07-28T02:41:09;8.38;;;5.57;;
43626;SDS011;29217;52.586;13.442;2023-07-28T02:43:35;10.57;;;5.32;;
43626;SDS011;29217;52.586;13.442;2023-07-28T02:46:00;9.20;;;5.20;;
43626;SDS011;29217;52.586;13.442;2023-07-28T02:48:26;8.10;;;4.57;;
43626;SDS011;29217;52.586;13.442;2023-07-28T02:50:52;10.73;;;4.78;;
43626;SDS011;29217;52.586;13.442;2023-07-28T02:53:18;9.93;;;4.88;;
43626;SDS011;29217;52.586;13.442;2023-07-28T02:55:44;7.72;;;4.93;;
43626;SDS011;29217;52.586;13.442;2023-07-28T02:58:11;8.38;;;5.20;;
43626;SDS011;29217;52.586;13.442;2023-07-28T03:00:37;9.68;;;5.10;;
43626;SDS011;29217;52.586;13.442;2023-07-28T03:03:04;7.97;;;4.78;;
43626;SDS011;29217;52.586;13.442;2023-07-28T03:05:30;9.95;;;5.40;;
43626;SDS011;29217;52.586;13.442;2023-07-28T03:07:57;10.75;;;5.70;;
43626;SDS011;29217;52.586;13.442;2023-07-28T03:10:23;14.23;;;5.75;;
43626;SDS011;29217;52.586;13.442;2023-07-28T03:12:48;9.68;;;5.43;;
43626;SDS011;29217;52.586;13.442;2023-07-28T03:15:14;11.30;;;5.80;;
43626;SDS011;29217;52.586;13.442;2023-07-28T03:17:40;12.85;;;5.70;;
43626;SDS011;29217;52.586;13.442;2023-07-28T03:20:05;12.80;;;6.20;;
43626;SDS011;29217;52.586;13.442;2023-07-28T03:22:31;10.60;;;5.75;;
43626;SDS011;29217;52.586;13.442;2023-07-28T03:24:57;16.90;;;6.38;;
43626;SDS011;29217;52.586;13.442;2023-07-28T03:27:22;13.75;;;6.10;;
43626;SDS011;29217;52.586;13.442;2023-07-28T03:29:48;11.88;;;5.80;;
43626;SDS011;29217;52.586;13.442;2023-07-28T03:32:14;12.50;;;6.00;;
43626;SDS011;29217;52.586;13.442;2023-07-28T03:34:40;12.80;;;6.20;;
43626;SDS011;29217;52.586;13.442;2023-07-28T03:37:06;13.07;;;6.82;;
43626;SDS011;29217;52.586;13.442;2023-07-28T03:39:31;9.13;;;5.57;;
43626;SDS011;29217;52.586;13.442;2023-07-28T03:41:57;10.75;;;5.55;;
43626;SDS011;29217;52.586;13.442;2023-07-28T03:44:23;11.15;;;5.72;;
43626;SDS011;29217;52.586;13.442;2023-07-28T03:46:48;10.98;;;6.03;;
43626;SDS011;29217;52.586;13.442;2023-07-28T03:49:14;11.73;;;5.65;;
43626;SDS011;29217;52.586;13.442;2023-07-28T03:51:40;9.70;;;5.65;;
43626;SDS011;29217;52.586;13.442;2023-07-28T03:54:05;10.90;;;6.07;;
43626;SDS011;29217;52.586;13.442;2023-07-28T03:56:31;12.10;;;5.80;;
43626;SDS011;29217;52.586;13.442;2023-07-28T03:58:56;11.98;;;5.90;;
43626;SDS011;29217;52.586;13.442;2023-07-28T04:01:22;15.18;;;6.20;;
43626;SDS011;29217;52.586;13.442;2023-07-28T04:03:49;10.02;;;6.00;;
43626;SDS011;29217;52.586;13.442;2023-07-28T04:06:14;11.27;;;6.45;;
43626;SDS011;29217;52.586;13.442;2023-07-28T04:08:40;13.70;;;7.03;;
43626;SDS011;29217;52.586;13.442;2023-07-28T04:11:06;11.45;;;6.43;;
43626;SDS011;29217;52.586;13.442;2023-07-28T04:13:33;14.73;;;7.07;;
43626;SDS011;29217;52.586;13.442;2023-07-28T04:15:59;10.23;;;6.68;;
43626;SDS011;29217;52.586;13.442;2023-07-28T04:18:24;12.18;;;6.70;;
43626;SDS011;29217;52.586;13.442;2023-07-28T04:20:50;17.58;;;6.82;;
43626;SDS011;29217;52.586;13.442;2023-07-28T04:23:16;13.02;;;6.72;;
43626;SDS011;29217;52.586;13.442;2023-07-28T04:25:41;12.57;;;6.55;;
43626;SDS011;29217;52.586;13.442;2023-07-28T04:28:07;13.43;;;6.35;;
43626;SDS011;29217;52.586;13.442;2023-07-28T04:30:32;12.15;;;6.32;;
43626;SDS011;29217;52.586;13.442;2023-07-28T04:32:58;12.10;;;6.05;;
43626;SDS011;29217;52.586;13.442;2023-07-28T04:35:23;13.57;;;5.72;;
43626;SDS011;29217;52.586;13.442;2023-07-28T04:37:49;13.38;;;5.80;;
43626;SDS011;29217;52.586;13.442;2023-07-28T04:40:15;11.15;;;6.18;;
43626;SDS011;29217;52.586;13.442;2023-07-28T04:42:40;13.75;;;6.13;;
43626;SDS011;29217;52.586;13.442;2023-07-28T04:45:06;14.20;;;5.65;;
43626;SDS011;29217;52.586;13.442;2023-07-28T04:47:32;11.02;;;6.57;;
43626;SDS011;29217;52.586;13.442;2023-07-28T04:49:58;12.25;;;7.07;;
43626;SDS011;29217;52.586;13.442;2023-07-28T04:52:23;11.38;;;6.38;;
43626;SDS011;29217;52.586;13.442;2023-07-28T04:54:49;12.02;;;6.75;;
43626;SDS011;29217;52.586;13.442;2023-07-28T04:57:14;11.32;;;6.00;;
43626;SDS011;29217;52.586;13.442;2023-07-28T04:59:40;10.73;;;6.45;;
43626;SDS011;29217;52.586;13.442;2023-07-28T05:02:07;15.10;;;6.40;;
43626;SDS011;29217;52.586;13.442;2023-07-28T05:04:32;11.13;;;6.45;;
43626;SDS011;29217;52.586;13.442;2023-07-28T05:06:58;10.25;;;6.07;;
43626;SDS011;29217;52.586;13.442;2023-07-28T05:09:23;10.85;;;6.82;;
43626;SDS011;29217;52.586;13.442;2023-07-28T05:11:49;9.00;;;5.95;;
43626;SDS011;29217;52.586;13.442;2023-07-28T05:14:14;10.70;;;6.53;;
43626;SDS011;29217;52.586;13.442;2023-07-28T05:16:40;15.98;;;6.88;;
43626;SDS011;29217;52.586;13.442;2023-07-28T05:19:06;12.30;;;6.10;;
43626;SDS011;29217;52.586;13.442;2023-07-28T05:21:34;12.13;;;6.75;;
43626;SDS011;29217;52.586;13.442;2023-07-28T05:24:00;9.50;;;6.22;;
43626;SDS011;29217;52.586;13.442;2023-07-28T05:26:25;20.80;;;7.75;;
43626;SDS011;29217;52.586;13.442;2023-07-28T05:28:51;15.35;;;6.82;;
43626;SDS011;29217;52.586;13.442;2023-07-28T05:31:16;11.70;;;6.45;;
43626;SDS011;29217;52.586;13.442;2023-07-28T05:33:43;12.85;;;6.60;;
43626;SDS011;29217;52.586;13.442;2023-07-28T05:36:08;11.05;;;6.70;;
43626;SDS011;29217;52.586;13.442;2023-07-28T05:38:34;9.25;;;6.03;;
43626;SDS011;29217;52.586;13.442;2023-07-28T05:40:59;9.57;;;6.05;;
43626;SDS011;29217;52.586;13.442;2023-07-28T05:43:29;10.70;;;6.00;;
43626;SDS011;29217;52.586;13.442;2023-07-28T05:45:58;12.82;;;6.97;;
43626;SDS011;29217;52.586;13.442;2023-07-28T05:48:24;9.75;;;5.70;;
43626;SDS011;29217;52.586;13.442;2023-07-28T05:50:50;10.38;;;6.10;;
43626;SDS011;29217;52.586;13.442;2023-07-28T05:53:17;10.60;;;6.15;;
43626;SDS011;29217;52.586;13.442;2023-07-28T05:55:43;7.95;;;5.60;;
43626;SDS011;29217;52.586;13.442;2023-07-28T05:58:08;10.60;;;5.55;;
43626;SDS011;29217;52.586;13.442;2023-07-28T06:00:34;8.35;;;5.70;;
43626;SDS011;29217;52.586;13.442;2023-07-28T06:02:59;8.95;;;5.50;;
43626;SDS011;29217;52.586;13.442;2023-07-28T06:05:25;11.35;;;6.00;;
43626;SDS011;29217;52.586;13.442;2023-07-28T06:07:51;10.82;;;6.05;;
43626;SDS011;29217;52.586;13.442;2023-07-28T06:10:17;9.40;;;5.50;;
43626;SDS011;29217;52.586;13.442;2023-07-28T06:12:43;8.93;;;5.90;;
43626;SDS011;29217;52.586;13.442;2023-07-28T06:15:08;12.07;;;5.20;;
43626;SDS011;29217;52.586;13.442;2023-07-28T06:17:34;10.35;;;6.10;;
43626;SDS011;29217;52.586;13.442;2023-07-28T06:20:00;10.98;;;5.88;;
43626;SDS011;29217;52.586;13.442;2023-07-28T06:22:25;8.52;;;5.47;;
43626;SDS011;29217;52.586;13.442;2023-07-28T06:24:51;9.27;;;5.47;;
43626;SDS011;29217;52.586;13.442;2023-07-28T06:27:16;10.00;;;6.10;;
43626;SDS011;29217;52.586;13.442;2023-07-28T06:29:42;11.68;;;5.75;;
43626;SDS011;29217;52.586;13.442;2023-07-28T06:32:08;12.02;;;5.97;;
43626;SDS011;29217;52.586;13.442;2023-07-28T06:34:33;10.80;;;6.13;;
43626;SDS011;29217;52.586;13.442;2023-07-28T06:36:59;10.88;;;5.78;;
43626;SDS011;29217;52.586;13.442;2023-07-28T06:39:24;9.30;;;5.60;;
43626;SDS011;29217;52.586;13.442;2023-07-28T06:41:50;7.82;;;5.63;;
43626;SDS011;29217;52.586;13.442;2023-07-28T06:44:16;8.77;;;5.72;;
43626;SDS011;29217;52.586;13.442;2023-07-28T06:46:42;10.48;;;5.47;;
43626;SDS011;29217;52.586;13.442;2023-07-28T06:49:08;14.43;;;6.32;;
43626;SDS011;29217;52.586;13.442;2023-07-28T06:51:33;9.60;;;6.03;;
43626;SDS011;29217;52.586;13.442;2023-07-28T06:53:59;9.07;;;6.10;;
43626;SDS011;29217;52.586;13.442;2023-07-28T06:56:24;10.18;;;5.70;;
43626;SDS011;29217;52.586;13.442;2023-07-28T06:58:50;8.18;;;5.40;;
43626;SDS011;29217;52.586;13.442;2023-07-28T07:01:16;10.23;;;6.10;;
43626;SDS011;29217;52.586;13.442;2023-07-28T07:03:43;8.40;;;5.45;;
43626;SDS011;29217;52.586;13.442;2023-07-28T07:06:09;10.93;;;4.90;;
43626;SDS011;29217;52.586;13.442;2023-07-28T07:08:34;7.85;;;4.90;;
43626;SDS011;29217;52.586;13.442;2023-07-28T07:11:00;7.57;;;5.22;;
43626;SDS011;29217;52.586;13.442;2023-07-28T07:13:25;6.43;;;4.75;;
43626;SDS011;29217;52.586;13.442;2023-07-28T07:15:51;8.93;;;5.20;;
43626;SDS011;29217;52.586;13.442;2023-07-28T07:18:17;6.80;;;4.95;;
43626;SDS011;29217;52.586;13.442;2023-07-28T07:20:42;8.85;;;4.78;;
43626;SDS011;29217;52.586;13.442;2023-07-28T07:23:08;5.57;;;4.25;;
43626;SDS011;29217;52.586;13.442;2023-07-28T07:25:35;5.32;;;4.38;;
43626;SDS011;29217;52.586;13.442;2023-07-28T07:28:00;7.05;;;4.40;;
43626;SDS011;29217;52.586;13.442;2023-07-28T07:30:26;5.20;;;4.18;;
43626;SDS011;29217;52.586;13.442;2023-07-28T07:32:51;6.30;;;4.40;;
43626;SDS011;29217;52.586;13.442;2023-07-28T07:35:17;5.18;;;3.70;;
43626;SDS011;29217;52.586;13.442;2023-07-28T07:37:43;5.15;;;4.10;;
43626;SDS011;29217;52.586;13.442;2023-07-28T07:40:08;7.85;;;4.07;;
43626;SDS011;29217;52.586;13.442;2023-07-28T07:42:45;5.93;;;4.22;;
43626;SDS011;29217;52.586;13.442;2023-07-28T07:45:12;6.15;;;3.60;;
43626;SDS011;29217;52.586;13.442;2023-07-28T07:47:39;5.32;;;3.78;;
43626;SDS011;29217;52.586;13.442;2023-07-28T07:50:06;4.07;;;3.42;;
43626;SDS011;29217;52.586;13.442;2023-07-28T07:52:34;6.53;;;3.72;;
43626;SDS011;29217;52.586;13.442;2023-07-28T07:55:00;4.65;;;3.22;;
43626;SDS011;29217;52.586;13.442;2023-07-28T07:57:27;6.82;;;2.97;;
43626;SDS011;29217;52.586;13.442;2023-07-28T07:59:52;7.53;;;3.30;;
43626;SDS011;29217;52.586;13.442;2023-07-28T08:02:18;5.40;;;3.13;;
43626;SDS011;29217;52.586;13.442;2023-07-28T08:04:43;5.07;;;3.15;;
43626;SDS011;29217;52.586;13.442;2023-07-28T08:07:09;5.18;;;3.08;;
43626;SDS011;29217;52.586;13.442;2023-07-28T08:09:35;6.30;;;2.70;;
43626;SDS011;29217;52.586;13.442;2023-07-28T08:12:00;5.40;;;2.72;;
43626;SDS011;29217;52.586;13.442;2023-07-28T08:14:27;4.63;;;2.30;;
43626;SDS011;29217;52.586;13.442;2023-07-28T08:16:53;5.75;;;2.63;;
43626;SDS011;29217;52.586;13.442;2023-07-28T08:19:18;4.68;;;2.40;;
43626;SDS011;29217;52.586;13.442;2023-07-28T08:21:44;4.38;;;2.20;;
43626;SDS011;29217;52.586;13.442;2023-07-28T08:24:10;4.38;;;2.00;;
43626;SDS011;29217;52.586;13.442;2023-07-28T08:26:36;3.55;;;2.05;;
43626;SDS011;29217;52.586;13.442;2023-07-28T08:29:02;10.85;;;2.08;;
43626;SDS011;29217;52.586;13.442;2023-07-28T08:31:28;4.35;;;2.10;;
43626;SDS011;29217;52.586;13.442;2023-07-28T08:33:53;3.70;;;1.90;;
43626;SDS011;29217;52.586;13.442;2023-07-28T08:36:19;4.72;;;1.73;;
43626;SDS011;29217;52.586;13.442;2023-07-28T08:38:45;2.22;;;1.90;;
43626;SDS011;29217;52.586;13.442;2023-07-28T08:41:10;2.28;;;1.80;;
43626;SDS011;29217;52.586;13.442;2023-07-28T08:43:38;4.82;;;1.90;;
43626;SDS011;29217;52.586;13.442;2023-07-28T08:46:04;8.80;;;2.10;;
43626;SDS011;29217;52.586;13.442;2023-07-28T08:48:29;3.17;;;1.58;;
43626;SDS011;29217;52.586;13.442;2023-07-28T08:50:55;3.00;;;1.60;;
43626;SDS011;29217;52.586;13.442;2023-07-28T08:53:20;2.42;;;1.77;;
43626;SDS011;29217;52.586;13.442;2023-07-28T08:55:47;5.35;;;1.70;;
43626;SDS011;29217;52.586;13.442;2023-07-28T08:58:22;3.47;;;1.60;;
43626;SDS011;29217;52.586;13.442;2023-07-28T09:00:51;3.47;;;1.73;;
43626;SDS011;29217;52.586;13.442;2023-07-28T09:03:17;2.08;;;1.65;;
43626;SDS011;29217;52.586;13.442;2023-07-28T09:05:44;1.73;;;1.45;;
43626;SDS011;29217;52.586;13.442;2023-07-28T09:08:14;2.75;;;1.50;;
43626;SDS011;29217;52.586;13.442;2023-07-28T09:10:49;1.67;;;1.40;;
43626;SDS011;29217;52.586;13.442;2023-07-28T09:13:15;5.97;;;1.80;;
43626;SDS011;29217;52.586;13.442;2023-07-28T09:15:42;1.73;;;1.63;;
43626;SDS011;29217;52.586;13.442;2023-07-28T09:18:09;1.67;;;1.30;;
43626;SDS011;29217;52.586;13.442;2023-07-28T09:20:39;2.20;;;1.40;;
43626;SDS011;29217;52.586;13.442;2023-07-28T09:23:06;1.50;;;1.40;;
43626;SDS011;29217;52.586;13.442;2023-07-28T09:25:33;4.07;;;2.00;;
43626;SDS011;29217;52.586;13.442;2023-07-28T09:28:00;3.05;;;1.40;;
43626;SDS011;29217;52.586;13.442;2023-07-28T09:30:25;2.70;;;1.80;;
43626;SDS011;29217;52.586;13.442;2023-07-28T09:32:53;1.80;;;1.30;;
43626;SDS011;29217;52.586;13.442;2023-07-28T09:35:20;1.73;;;1.60;;
43626;SDS011;29217;52.586;13.442;2023-07-28T09:37:47;2.00;;;1.80;;
43626;SDS011;29217;52.586;13.442;2023-07-28T09:40:16;1.90;;;1.75;;
43626;SDS011;29217;52.586;13.442;2023-07-28T09:42:44;3.35;;;1.98;;
43626;SDS011;29217;52.586;13.442;2023-07-28T09:45:14;1.95;;;1.55;;
43626;SDS011;29217;52.586;13.442;2023-07-28T09:47:44;4.47;;;1.58;;
43626;SDS011;29217;52.586;13.442;2023-07-28T09:50:13;8.75;;;1.98;;
43626;SDS011;29217;52.586;13.442;2023-07-28T09:52:43;2.50;;;1.50;;
43626;SDS011;29217;52.586;13.442;2023-07-28T09:55:11;3.45;;;1.48;;
43626;SDS011;29217;52.586;13.442;2023-07-28T09:57:48;1.98;;;1.58;;
43626;SDS011;29217;52.586;13.442;2023-07-28T10:00:16;3.85;;;1.20;;
43626;SDS011;29217;52.586;13.442;2023-07-28T10:02:44;1.80;;;1.30;;
43626;SDS011;29217;52.586;13.442;2023-07-28T10:05:10;5.10;;;1.40;;
43626;SDS011;29217;52.586;13.442;2023-07-28T10:07:37;2.13;;;1.63;;
43626;SDS011;29217;52.586;13.442;2023-07-28T10:10:04;1.77;;;1.55;;
43626;SDS011;29217;52.586;13.442;2023-07-28T10:12:42;1.58;;;1.45;;
43626;SDS011;29217;52.586;13.442;2023-07-28T10:15:14;2.50;;;1.40;;
43626;SDS011;29217;52.586;13.442;2023-07-28T10:17:45;2.08;;;1.23;;
43626;SDS011;29217;52.586;13.442;2023-07-28T10:23:03;2.90;;;1.52;;
43626;SDS011;29217;52.586;13.442;2023-07-28T10:25:39;8.35;;;1.90;;
43626;SDS011;29217;52.586;13.442;2023-07-28T10:28:07;6.75;;;1.42;;
43626;SDS011;29217;52.586;13.442;2023-07-28T10:30:53;1.42;;;1.33;;
43626;SDS011;29217;52.586;13.442;2023-07-28T10:33:53;3.05;;;1.30;;
43626;SDS011;29217;52.586;13.442;2023-07-28T10:36:32;2.50;;;1.70;;
43626;SDS011;29217;52.586;13.442;2023-07-28T10:39:05;2.28;;;1.60;;
43626;SDS011;29217;52.586;13.442;2023-07-28T10:44:33;15.85;;;2.60;;
43626;SDS011;29217;52.586;13.442;2023-07-28T10:47:00;10.27;;;2.15;;
43626;SDS011;29217;52.586;13.442;2023-07-28T10:49:26;5.13;;;1.48;;
43626;SDS011;29217;52.586;13.442;2023-07-28T10:51:57;6.93;;;1.38;;
43626;SDS011;29217;52.586;13.442;2023-07-28T10:54:22;4.32;;;1.65;;
43626;SDS011;29217;52.586;13.442;2023-07-28T10:56:48;1.73;;;1.10;;
43626;SDS011;29217;52.586;13.442;2023-07-28T10:59:14;1.75;;;1.20;;
43626;SDS011;29217;52.586;13.442;2023-07-28T11:01:43;1.55;;;1.05;;
43626;SDS011;29217;52.586;13.442;2023-07-28T11:04:13;1.50;;;1.23;;
43626;SDS011;29217;52.586;13.442;2023-07-28T11:06:44;2.67;;;1.20;;
43626;SDS011;29217;52.586;13.442;2023-07-28T11:09:11;2.47;;;1.30;;
43626;SDS011;29217;52.586;13.442;2023-07-28T11:11:38;1.75;;;0.98;;
43626;SDS011;29217;52.586;13.442;2023-07-28T11:14:04;2.03;;;1.25;;
43626;SDS011;29217;52.586;13.442;2023-07-28T11:16:32;1.35;;;1.25;;
43626;SDS011;29217;52.586;13.442;2023-07-28T11:19:03;4.03;;;1.52;;
43626;SDS011;29217;52.586;13.442;2023-07-28T11:21:35;2.15;;;1.25;;
43626;SDS011;29217;52.586;13.442;2023-07-28T11:24:09;1.73;;;1.02;;
43626;SDS011;29217;52.586;13.442;2023-07-28T11:26:35;2.00;;;1.10;;
43626;SDS011;29217;52.586;13.442;2023-07-28T11:29:02;2.55;;;1.20;;
43626;SDS011;29217;52.586;13.442;2023-07-28T11:31:28;1.17;;;1.08;;
43626;SDS011;29217;52.586;13.442;2023-07-28T11:33:54;1.60;;;1.30;;
43626;SDS011;29217;52.586;13.442;2023-07-28T11:36:26;1.55;;;1.27;;
43626;SDS011;29217;52.586;13.442;2023-07-28T11:38:54;1.40;;;1.27;;
43626;SDS011;29217;52.586;13.442;2023-07-28T11:41:22;2.50;;;1.25;;
43626;SDS011;29217;52.586;13.442;2023-07-28T11:43:48;2.63;;;0.90;;
43626;SDS011;29217;52.586;13.442;2023-07-28T11:49:09;0.80;;;0.80;;
43626;SDS011;29217;52.586;13.442;2023-07-28T11:51:39;0.90;;;0.80;;
43626;SDS011;29217;52.586;13.442;2023-07-28T11:54:08;0.90;;;0.90;;
43626;SDS011;29217;52.586;13.442;2023-07-28T11:56:42;1.30;;;1.20;;
43626;SDS011;29217;52.586;13.442;2023-07-28T11:59:09;1.98;;;1.08;;
43626;SDS011;29217;52.586;13.442;2023-07-28T12:01:50;1.20;;;1.10;;
43626;SDS011;29217;52.586;13.442;2023-07-28T12:04:21;1.73;;;1.33;;
43626;SDS011;29217;52.586;13.442;2023-07-28T12:07:04;2.45;;;1.38;;
43626;SDS011;29217;52.586;13.442;2023-07-28T12:09:31;1.42;;;1.33;;
43626;SDS011;29217;52.586;13.442;2023-07-28T12:12:18;4.55;;;1.50;;
43626;SDS011;29217;52.586;13.442;2023-07-28T12:14:45;4.07;;;1.40;;
43626;SDS011;29217;52.586;13.442;2023-07-28T12:17:15;4.90;;;1.42;;
43626;SDS011;29217;52.586;13.442;2023-07-28T12:22:22;2.22;;;1.70;;
43626;SDS011;29217;52.586;13.442;2023-07-28T12:24:48;2.17;;;1.60;;
43626;SDS011;29217;52.586;13.442;2023-07-28T12:27:13;2.10;;;1.90;;
43626;SDS011;29217;52.586;13.442;2023-07-28T12:29:41;2.50;;;2.00;;
43626;SDS011;29217;52.586;13.442;2023-07-28T12:32:06;2.42;;;2.00;;
43626;SDS011;29217;52.586;13.442;2023-07-28T12:34:32;2.33;;;2.08;;
43626;SDS011;29217;52.586;13.442;2023-07-28T12:36:59;2.78;;;2.10;;
43626;SDS011;29217;52.586;13.442;2023-07-28T12:39:25;4.07;;;1.88;;
43626;SDS011;29217;52.586;13.442;2023-07-28T12:41:50;2.25;;;2.05;;
43626;SDS011;29217;52.586;13.442;2023-07-28T12:44:19;4.40;;;2.03;;
43626;SDS011;29217;52.586;13.442;2023-07-28T12:46:46;2.30;;;1.70;;
43626;SDS011;29217;52.586;13.442;2023-07-28T12:49:11;2.25;;;1.98;;
43626;SDS011;29217;52.586;13.442;2023-07-28T12:51:37;3.38;;;2.22;;
43626;SDS011;29217;52.586;13.442;2023-07-28T12:54:03;4.28;;;2.30;;
43626;SDS011;29217;52.586;13.442;2023-07-28T12:56:29;3.20;;;1.98;;
43626;SDS011;29217;52.586;13.442;2023-07-28T12:58:55;4.22;;;2.08;;
43626;SDS011;29217;52.586;13.442;2023-07-28T13:01:21;2.15;;;1.85;;
43626;SDS011;29217;52.586;13.442;2023-07-28T13:03:46;3.00;;;1.80;;
43626;SDS011;29217;52.586;13.442;2023-07-28T13:06:12;2.28;;;1.77;;
43626;SDS011;29217;52.586;13.442;2023-07-28T13:08:37;3.80;;;1.58;;
43626;SDS011;29217;52.586;13.442;2023-07-28T13:11:03;2.03;;;1.58;;
43626;SDS011;29217;52.586;13.442;2023-07-28T13:13:29;5.70;;;1.60;;
43626;SDS011;29217;52.586;13.442;2023-07-28T13:15:55;3.30;;;1.20;;
43626;SDS011;29217;52.586;13.442;2023-07-28T13:18:21;1.45;;;1.30;;
43626;SDS011;29217;52.586;13.442;2023-07-28T13:20:48;3.38;;;1.40;;
43626;SDS011;29217;52.586;13.442;2023-07-28T13:23:14;1.65;;;1.27;;
43626;SDS011;29217;52.586;13.442;2023-07-28T13:25:39;1.45;;;1.35;;
43626;SDS011;29217;52.586;13.442;2023-07-28T13:28:05;3.40;;;1.30;;
43626;SDS011;29217;52.586;13.442;2023-07-28T13:30:30;1.65;;;1.30;;
43626;SDS011;29217;52.586;13.442;2023-07-28T13:32:56;1.48;;;1.10;;
43626;SDS011;29217;52.586;13.442;2023-07-28T13:35:21;1.20;;;1.08;;
43626;SDS011;29217;52.586;13.442;2023-07-28T13:37:47;1.55;;;1.40;;
43626;SDS011;29217;52.586;13.442;2023-07-28T13:40:13;2.00;;;1.20;;
43626;SDS011;29217;52.586;13.442;2023-07-28T13:42:39;2.05;;;1.27;;
43626;SDS011;29217;52.586;13.442;2023-07-28T13:45:05;2.33;;;1.38;;
43626;SDS011;29217;52.586;13.442;2023-07-28T13:47:31;7.72;;;1.52;;
43626;SDS011;29217;52.586;13.442;2023-07-28T13:49:56;1.30;;;0.93;;
43626;SDS011;29217;52.586;13.442;2023-07-28T13:52:22;1.40;;;1.20;;
43626;SDS011;29217;52.586;13.442;2023-07-28T13:54:47;1.98;;;1.10;;
43626;SDS011;29217;52.586;13.442;2023-07-28T13:57:13;1.20;;;1.10;;
43626;SDS011;29217;52.586;13.442;2023-07-28T13:59:39;1.25;;;1.08;;
43626;SDS011;29217;52.586;13.442;2023-07-28T14:02:05;1.10;;;0.85;;
43626;SDS011;29217;52.586;13.442;2023-07-28T14:04:30;2.40;;;1.30;;
43626;SDS011;29217;52.586;13.442;2023-07-28T14:06:56;3.35;;;1.20;;
43626;SDS011;29217;52.586;13.442;2023-07-28T14:09:23;1.55;;;1.20;;
43626;SDS011;29217;52.586;13.442;2023-07-28T14:11:49;1.63;;;1.20;;
43626;SDS011;29217;52.586;13.442;2023-07-28T14:14:14;2.45;;;1.55;;
43626;SDS011;29217;52.586;13.442;2023-07-28T14:16:40;3.35;;;1.10;;
43626;SDS011;29217;52.586;13.442;2023-07-28T14:19:07;1.08;;;0.98;;
43626;SDS011;29217;52.586;13.442;2023-07-28T14:21:33;1.58;;;1.23;;
43626;SDS011;29217;52.586;13.442;2023-07-28T14:23:58;2.65;;;1.00;;
43626;SDS011;29217;52.586;13.442;2023-07-28T14:26:24;1.10;;;1.00;;
43626;SDS011;29217;52.586;13.442;2023-07-28T14:28:50;1.10;;;1.00;;
43626;SDS011;29217;52.586;13.442;2023-07-28T14:31:15;1.20;;;1.10;;
43626;SDS011;29217;52.586;13.442;2023-07-28T14:33:41;2.00;;;1.17;;
43626;SDS011;29217;52.586;13.442;2023-07-28T14:36:06;1.70;;;1.10;;
43626;SDS011;29217;52.586;13.442;2023-07-28T14:38:32;1.95;;;1.10;;
43626;SDS011;29217;52.586;13.442;2023-07-28T14:40:58;2.72;;;1.00;;
43626;SDS011;29217;52.586;13.442;2023-07-28T14:43:23;2.53;;;1.13;;
43626;SDS011;29217;52.586;13.442;2023-07-28T14:45:50;1.10;;;1.00;;